sensor_id;sensor_type;location;lat;lon;timestamp;P1;durP1;ratioP1;P2;durP2;ratioP2
12784;SDS011;6456;42.680;23.260;2023-04-15T00:01:50;8.43;;;5.03;;
12784;SDS011;6456;42.680;23.260;2023-04-15T00:04:17;7.57;;;4.70;;
12784;SDS011;6456;42.680;23.260;2023-04-15T00:06:50;7.43;;;5.20;;
12784;SDS011;6456;42.680;23.260;2023-04-15T00:09:18;6.63;;;4.53;;
12784;SDS011;6456;42.680;23.260;2023-04-15T00:11:44;8.63;;;5.40;;
12784;SDS011;6456;42.680;23.260;2023-04-15T00:14:12;6.30;;;4.77;;
12784;SDS011;6456;42.680;23.260;2023-04-15T00:16:39;7.83;;;5.30;;
12784;SDS011;6456;42.680;23.260;2023-04-15T00:19:06;6.43;;;4.90;;
12784;SDS011;6456;42.680;23.260;2023-04-15T00:21:33;9.33;;;5.23;;
12784;SDS011;6456;42.680;23.260;2023-04-15T00:24:02;6.07;;;4.30;;
12784;SDS011;6456;42.680;23.260;2023-04-15T00:26:29;10.43;;;5.20;;
12784;SDS011;6456;42.680;23.260;2023-04-15T00:28:56;5.30;;;4.17;;
12784;SDS011;6456;42.680;23.260;2023-04-15T00:31:22;6.30;;;4.60;;
12784;SDS011;6456;42.680;23.260;2023-04-15T00:33:50;5.30;;;4.07;;
12784;SDS011;6456;42.680;23.260;2023-04-15T00:36:17;6.73;;;4.20;;
12784;SDS011;6456;42.680;23.260;2023-04-15T00:38:44;5.17;;;3.90;;
12784;SDS011;6456;42.680;23.260;2023-04-15T00:41:12;4.90;;;3.63;;
12784;SDS011;6456;42.680;23.260;2023-04-15T00:43:39;6.20;;;4.27;;
12784;SDS011;6456;42.680;23.260;2023-04-15T00:46:06;4.37;;;3.33;;
12784;SDS011;6456;42.680;23.260;2023-04-15T00:48:34;6.67;;;3.53;;
12784;SDS011;6456;42.680;23.260;2023-04-15T00:51:03;5.93;;;3.87;;
12784;SDS011;6456;42.680;23.260;2023-04-15T00:53:31;5.23;;;3.53;;
12784;SDS011;6456;42.680;23.260;2023-04-15T00:55:58;4.23;;;3.07;;
12784;SDS011;6456;42.680;23.260;2023-04-15T00:58:26;7.10;;;4.10;;
12784;SDS011;6456;42.680;23.260;2023-04-15T01:00:55;4.37;;;3.60;;
12784;SDS011;6456;42.680;23.260;2023-04-15T01:03:23;5.53;;;3.80;;
12784;SDS011;6456;42.680;23.260;2023-04-15T01:05:50;2.73;;;1.77;;
12784;SDS011;6456;42.680;23.260;2023-04-15T01:08:22;6.50;;;3.60;;
12784;SDS011;6456;42.680;23.260;2023-04-15T01:10:51;5.20;;;3.20;;
12784;SDS011;6456;42.680;23.260;2023-04-15T01:13:19;5.20;;;4.37;;
12784;SDS011;6456;42.680;23.260;2023-04-15T01:15:49;7.53;;;5.60;;
12784;SDS011;6456;42.680;23.260;2023-04-15T01:18:17;8.37;;;4.93;;
12784;SDS011;6456;42.680;23.260;2023-04-15T01:20:45;5.50;;;4.77;;
12784;SDS011;6456;42.680;23.260;2023-04-15T01:23:12;10.13;;;4.47;;
12784;SDS011;6456;42.680;23.260;2023-04-15T01:25:41;5.80;;;4.70;;
12784;SDS011;6456;42.680;23.260;2023-04-15T01:28:09;4.80;;;4.20;;
12784;SDS011;6456;42.680;23.260;2023-04-15T01:30:36;6.13;;;4.20;;
12784;SDS011;6456;42.680;23.260;2023-04-15T01:33:03;5.13;;;3.57;;
12784;SDS011;6456;42.680;23.260;2023-04-15T01:35:30;5.60;;;3.40;;
12784;SDS011;6456;42.680;23.260;2023-04-15T01:37:58;5.13;;;3.70;;
12784;SDS011;6456;42.680;23.260;2023-04-15T01:40:29;4.10;;;3.20;;
12784;SDS011;6456;42.680;23.260;2023-04-15T01:42:57;6.87;;;3.60;;
12784;SDS011;6456;42.680;23.260;2023-04-15T01:45:25;3.80;;;3.30;;
12784;SDS011;6456;42.680;23.260;2023-04-15T01:47:52;7.70;;;3.30;;
12784;SDS011;6456;42.680;23.260;2023-04-15T01:50:19;4.40;;;2.80;;
12784;SDS011;6456;42.680;23.260;2023-04-15T01:52:47;4.83;;;3.13;;
12784;SDS011;6456;42.680;23.260;2023-04-15T01:55:13;3.70;;;3.03;;
12784;SDS011;6456;42.680;23.260;2023-04-15T01:57:40;4.03;;;3.10;;
12784;SDS011;6456;42.680;23.260;2023-04-15T02:00:09;4.77;;;2.77;;
12784;SDS011;6456;42.680;23.260;2023-04-15T02:02:36;4.50;;;2.90;;
12784;SDS011;6456;42.680;23.260;2023-04-15T02:05:04;3.67;;;3.00;;
12784;SDS011;6456;42.680;23.260;2023-04-15T02:07:31;5.43;;;3.50;;
12784;SDS011;6456;42.680;23.260;2023-04-15T02:09:58;4.30;;;3.30;;
12784;SDS011;6456;42.680;23.260;2023-04-15T02:12:25;4.43;;;3.47;;
12784;SDS011;6456;42.680;23.260;2023-04-15T02:14:52;3.97;;;3.47;;
12784;SDS011;6456;42.680;23.260;2023-04-15T02:17:21;4.33;;;3.53;;
12784;SDS011;6456;42.680;23.260;2023-04-15T02:19:48;4.67;;;2.97;;
12784;SDS011;6456;42.680;23.260;2023-04-15T02:22:15;3.00;;;2.70;;
12784;SDS011;6456;42.680;23.260;2023-04-15T02:24:42;4.07;;;2.90;;
12784;SDS011;6456;42.680;23.260;2023-04-15T02:27:14;4.70;;;3.10;;
12784;SDS011;6456;42.680;23.260;2023-04-15T02:29:42;3.63;;;2.63;;
12784;SDS011;6456;42.680;23.260;2023-04-15T02:32:09;4.20;;;2.80;;
12784;SDS011;6456;42.680;23.260;2023-04-15T02:34:38;3.90;;;3.23;;
12784;SDS011;6456;42.680;23.260;2023-04-15T02:37:07;4.70;;;3.10;;
12784;SDS011;6456;42.680;23.260;2023-04-15T02:39:34;5.47;;;3.40;;
12784;SDS011;6456;42.680;23.260;2023-04-15T02:42:01;4.00;;;2.90;;
12784;SDS011;6456;42.680;23.260;2023-04-15T02:44:29;4.87;;;2.90;;
12784;SDS011;6456;42.680;23.260;2023-04-15T02:46:56;5.80;;;3.50;;
12784;SDS011;6456;42.680;23.260;2023-04-15T02:49:23;4.07;;;3.50;;
12784;SDS011;6456;42.680;23.260;2023-04-15T02:51:52;6.03;;;4.27;;
12784;SDS011;6456;42.680;23.260;2023-04-15T02:54:19;6.00;;;3.63;;
12784;SDS011;6456;42.680;23.260;2023-04-15T02:56:47;6.83;;;4.27;;
12784;SDS011;6456;42.680;23.260;2023-04-15T02:59:15;4.43;;;4.03;;
12784;SDS011;6456;42.680;23.260;2023-04-15T03:01:42;5.03;;;3.97;;
12784;SDS011;6456;42.680;23.260;2023-04-15T03:04:08;6.03;;;4.53;;
12784;SDS011;6456;42.680;23.260;2023-04-15T03:06:35;5.67;;;3.93;;
12784;SDS011;6456;42.680;23.260;2023-04-15T03:09:04;6.17;;;4.40;;
12784;SDS011;6456;42.680;23.260;2023-04-15T03:11:31;6.10;;;4.73;;
12784;SDS011;6456;42.680;23.260;2023-04-15T03:13:58;6.33;;;4.90;;
12784;SDS011;6456;42.680;23.260;2023-04-15T03:16:25;7.93;;;5.13;;
12784;SDS011;6456;42.680;23.260;2023-04-15T03:18:51;8.87;;;5.33;;
12784;SDS011;6456;42.680;23.260;2023-04-15T03:21:18;6.77;;;4.80;;
12784;SDS011;6456;42.680;23.260;2023-04-15T03:23:45;6.33;;;4.90;;
12784;SDS011;6456;42.680;23.260;2023-04-15T03:26:24;5.93;;;4.93;;
12784;SDS011;6456;42.680;23.260;2023-04-15T03:28:52;6.50;;;4.80;;
12784;SDS011;6456;42.680;23.260;2023-04-15T03:31:19;5.60;;;5.00;;
12784;SDS011;6456;42.680;23.260;2023-04-15T03:33:46;7.20;;;5.43;;
12784;SDS011;6456;42.680;23.260;2023-04-15T03:36:13;8.40;;;4.57;;
12784;SDS011;6456;42.680;23.260;2023-04-15T03:38:39;5.20;;;4.30;;
12784;SDS011;6456;42.680;23.260;2023-04-15T03:41:06;7.30;;;4.30;;
12784;SDS011;6456;42.680;23.260;2023-04-15T03:43:35;4.93;;;4.17;;
12784;SDS011;6456;42.680;23.260;2023-04-15T03:46:02;8.03;;;4.57;;
12784;SDS011;6456;42.680;23.260;2023-04-15T03:48:29;6.10;;;4.60;;
12784;SDS011;6456;42.680;23.260;2023-04-15T03:50:56;5.83;;;4.60;;
12784;SDS011;6456;42.680;23.260;2023-04-15T03:53:22;6.67;;;4.60;;
12784;SDS011;6456;42.680;23.260;2023-04-15T03:55:49;7.03;;;4.67;;
12784;SDS011;6456;42.680;23.260;2023-04-15T03:58:16;6.87;;;4.67;;
12784;SDS011;6456;42.680;23.260;2023-04-15T04:00:45;8.00;;;5.50;;
12784;SDS011;6456;42.680;23.260;2023-04-15T04:03:11;6.90;;;5.10;;
12784;SDS011;6456;42.680;23.260;2023-04-15T04:05:38;8.73;;;5.63;;
12784;SDS011;6456;42.680;23.260;2023-04-15T04:08:08;7.63;;;6.13;;
12784;SDS011;6456;42.680;23.260;2023-04-15T04:10:37;8.40;;;5.70;;
12784;SDS011;6456;42.680;23.260;2023-04-15T04:13:04;7.43;;;5.60;;
12784;SDS011;6456;42.680;23.260;2023-04-15T04:15:31;7.00;;;4.93;;
12784;SDS011;6456;42.680;23.260;2023-04-15T04:17:59;6.17;;;4.80;;
12784;SDS011;6456;42.680;23.260;2023-04-15T04:20:26;7.07;;;4.87;;
12784;SDS011;6456;42.680;23.260;2023-04-15T04:22:53;6.30;;;5.00;;
12784;SDS011;6456;42.680;23.260;2023-04-15T04:25:20;7.37;;;5.07;;
12784;SDS011;6456;42.680;23.260;2023-04-15T04:27:47;6.97;;;5.27;;
12784;SDS011;6456;42.680;23.260;2023-04-15T04:30:23;5.93;;;4.83;;
12784;SDS011;6456;42.680;23.260;2023-04-15T04:33:09;8.77;;;5.07;;
12784;SDS011;6456;42.680;23.260;2023-04-15T04:35:36;6.43;;;5.03;;
12784;SDS011;6456;42.680;23.260;2023-04-15T04:38:10;7.33;;;5.20;;
12784;SDS011;6456;42.680;23.260;2023-04-15T04:40:58;7.53;;;4.60;;
12784;SDS011;6456;42.680;23.260;2023-04-15T04:43:37;5.13;;;4.53;;
12784;SDS011;6456;42.680;23.260;2023-04-15T04:46:15;6.33;;;4.83;;
12784;SDS011;6456;42.680;23.260;2023-04-15T04:48:43;7.63;;;5.27;;
12784;SDS011;6456;42.680;23.260;2023-04-15T04:51:10;9.60;;;5.80;;
12784;SDS011;6456;42.680;23.260;2023-04-15T04:53:37;6.97;;;5.10;;
12784;SDS011;6456;42.680;23.260;2023-04-15T04:56:04;5.57;;;4.57;;
12784;SDS011;6456;42.680;23.260;2023-04-15T04:58:31;7.47;;;5.10;;
12784;SDS011;6456;42.680;23.260;2023-04-15T05:00:58;5.47;;;4.33;;
12784;SDS011;6456;42.680;23.260;2023-04-15T05:03:25;8.20;;;4.40;;
12784;SDS011;6456;42.680;23.260;2023-04-15T05:05:55;5.87;;;3.83;;
12784;SDS011;6456;42.680;23.260;2023-04-15T05:08:22;5.50;;;4.20;;
12784;SDS011;6456;42.680;23.260;2023-04-15T05:10:50;5.10;;;3.87;;
12784;SDS011;6456;42.680;23.260;2023-04-15T05:13:17;5.60;;;4.10;;
12784;SDS011;6456;42.680;23.260;2023-04-15T05:15:46;6.73;;;5.57;;
12784;SDS011;6456;42.680;23.260;2023-04-15T05:18:12;5.73;;;5.07;;
12784;SDS011;6456;42.680;23.260;2023-04-15T05:20:39;7.57;;;4.97;;
12784;SDS011;6456;42.680;23.260;2023-04-15T05:23:07;6.67;;;3.57;;
12784;SDS011;6456;42.680;23.260;2023-04-15T05:25:34;6.70;;;4.03;;
12784;SDS011;6456;42.680;23.260;2023-04-15T05:28:01;4.80;;;3.40;;
12784;SDS011;6456;42.680;23.260;2023-04-15T05:30:28;4.53;;;3.40;;
12784;SDS011;6456;42.680;23.260;2023-04-15T05:32:54;7.07;;;5.83;;
12784;SDS011;6456;42.680;23.260;2023-04-15T05:35:21;13.10;;;11.13;;
12784;SDS011;6456;42.680;23.260;2023-04-15T05:37:48;14.37;;;12.87;;
12784;SDS011;6456;42.680;23.260;2023-04-15T05:40:16;17.20;;;15.03;;
12784;SDS011;6456;42.680;23.260;2023-04-15T05:42:44;19.57;;;15.10;;
12784;SDS011;6456;42.680;23.260;2023-04-15T05:45:11;14.63;;;13.03;;
12784;SDS011;6456;42.680;23.260;2023-04-15T05:47:37;14.83;;;13.00;;
12784;SDS011;6456;42.680;23.260;2023-04-15T05:50:05;14.17;;;11.87;;
12784;SDS011;6456;42.680;23.260;2023-04-15T05:52:32;13.83;;;11.40;;
12784;SDS011;6456;42.680;23.260;2023-04-15T05:54:59;13.10;;;10.57;;
12784;SDS011;6456;42.680;23.260;2023-04-15T05:57:27;13.27;;;10.13;;
12784;SDS011;6456;42.680;23.260;2023-04-15T05:59:54;14.13;;;10.10;;
12784;SDS011;6456;42.680;23.260;2023-04-15T06:02:21;10.57;;;9.23;;
12784;SDS011;6456;42.680;23.260;2023-04-15T06:04:48;10.80;;;8.77;;
12784;SDS011;6456;42.680;23.260;2023-04-15T06:07:15;15.63;;;9.53;;
12784;SDS011;6456;42.680;23.260;2023-04-15T06:09:42;13.77;;;8.93;;
12784;SDS011;6456;42.680;23.260;2023-04-15T06:12:08;11.80;;;7.57;;
12784;SDS011;6456;42.680;23.260;2023-04-15T06:14:37;10.20;;;7.80;;
12784;SDS011;6456;42.680;23.260;2023-04-15T06:17:04;10.03;;;7.40;;
12784;SDS011;6456;42.680;23.260;2023-04-15T06:19:31;9.17;;;6.90;;
12784;SDS011;6456;42.680;23.260;2023-04-15T06:21:58;8.13;;;5.80;;
12784;SDS011;6456;42.680;23.260;2023-04-15T06:24:25;8.37;;;6.53;;
12784;SDS011;6456;42.680;23.260;2023-04-15T06:26:52;9.60;;;6.73;;
12784;SDS011;6456;42.680;23.260;2023-04-15T06:29:19;9.60;;;6.37;;
12784;SDS011;6456;42.680;23.260;2023-04-15T06:31:47;8.50;;;5.60;;
12784;SDS011;6456;42.680;23.260;2023-04-15T06:34:14;9.57;;;5.73;;
12784;SDS011;6456;42.680;23.260;2023-04-15T06:36:41;5.77;;;5.00;;
12784;SDS011;6456;42.680;23.260;2023-04-15T06:39:08;8.37;;;5.40;;
12784;SDS011;6456;42.680;23.260;2023-04-15T06:41:35;7.37;;;6.40;;
12784;SDS011;6456;42.680;23.260;2023-04-15T06:44:02;8.07;;;5.60;;
12784;SDS011;6456;42.680;23.260;2023-04-15T06:46:28;7.07;;;5.57;;
12784;SDS011;6456;42.680;23.260;2023-04-15T06:48:57;8.03;;;5.77;;
12784;SDS011;6456;42.680;23.260;2023-04-15T06:51:23;10.40;;;6.07;;
12784;SDS011;6456;42.680;23.260;2023-04-15T06:53:51;9.70;;;6.17;;
12784;SDS011;6456;42.680;23.260;2023-04-15T06:56:18;6.43;;;4.63;;
12784;SDS011;6456;42.680;23.260;2023-04-15T06:58:44;5.53;;;4.73;;
12784;SDS011;6456;42.680;23.260;2023-04-15T07:01:12;8.93;;;6.40;;
12784;SDS011;6456;42.680;23.260;2023-04-15T07:03:39;5.67;;;4.80;;
12784;SDS011;6456;42.680;23.260;2023-04-15T07:06:08;5.67;;;3.90;;
12784;SDS011;6456;42.680;23.260;2023-04-15T07:08:35;2.83;;;2.43;;
12784;SDS011;6456;42.680;23.260;2023-04-15T07:11:01;7.17;;;4.33;;
12784;SDS011;6456;42.680;23.260;2023-04-15T07:13:29;2.00;;;1.60;;
12784;SDS011;6456;42.680;23.260;2023-04-15T07:15:57;1.73;;;1.10;;
12784;SDS011;6456;42.680;23.260;2023-04-15T07:18:23;3.80;;;2.27;;
12784;SDS011;6456;42.680;23.260;2023-04-15T07:20:50;2.93;;;1.07;;
12784;SDS011;6456;42.680;23.260;2023-04-15T07:23:18;2.20;;;1.10;;
12784;SDS011;6456;42.680;23.260;2023-04-15T07:25:45;1.97;;;1.30;;
12784;SDS011;6456;42.680;23.260;2023-04-15T07:28:12;2.53;;;0.90;;
12784;SDS011;6456;42.680;23.260;2023-04-15T07:30:39;1.20;;;0.77;;
12784;SDS011;6456;42.680;23.260;2023-04-15T07:33:06;1.37;;;0.90;;
12784;SDS011;6456;42.680;23.260;2023-04-15T07:35:33;2.67;;;1.10;;
12784;SDS011;6456;42.680;23.260;2023-04-15T07:38:00;2.23;;;1.10;;
12784;SDS011;6456;42.680;23.260;2023-04-15T07:40:28;1.43;;;1.00;;
12784;SDS011;6456;42.680;23.260;2023-04-15T07:42:55;0.77;;;0.77;;
12784;SDS011;6456;42.680;23.260;2023-04-15T07:45:22;1.70;;;1.07;;
12784;SDS011;6456;42.680;23.260;2023-04-15T07:47:49;2.87;;;1.20;;
12784;SDS011;6456;42.680;23.260;2023-04-15T07:50:16;4.43;;;1.10;;
12784;SDS011;6456;42.680;23.260;2023-04-15T07:52:43;1.93;;;1.10;;
12784;SDS011;6456;42.680;23.260;2023-04-15T07:55:10;4.20;;;1.17;;
12784;SDS011;6456;42.680;23.260;2023-04-15T07:57:57;2.00;;;1.20;;
12784;SDS011;6456;42.680;23.260;2023-04-15T08:00:23;3.23;;;1.13;;
12784;SDS011;6456;42.680;23.260;2023-04-15T08:02:51;2.47;;;0.97;;
12784;SDS011;6456;42.680;23.260;2023-04-15T08:05:18;1.63;;;1.13;;
12784;SDS011;6456;42.680;23.260;2023-04-15T08:07:45;1.67;;;1.20;;
12784;SDS011;6456;42.680;23.260;2023-04-15T08:10:13;2.13;;;1.30;;
12784;SDS011;6456;42.680;23.260;2023-04-15T08:12:40;3.80;;;2.23;;
12784;SDS011;6456;42.680;23.260;2023-04-15T08:15:08;5.50;;;3.07;;
12784;SDS011;6456;42.680;23.260;2023-04-15T08:17:37;7.37;;;4.10;;
12784;SDS011;6456;42.680;23.260;2023-04-15T08:20:04;5.37;;;3.00;;
12784;SDS011;6456;42.680;23.260;2023-04-15T08:22:31;2.77;;;1.50;;
12784;SDS011;6456;42.680;23.260;2023-04-15T08:24:58;1.80;;;1.00;;
12784;SDS011;6456;42.680;23.260;2023-04-15T08:27:25;2.83;;;1.30;;
12784;SDS011;6456;42.680;23.260;2023-04-15T08:29:52;1.57;;;1.00;;
12784;SDS011;6456;42.680;23.260;2023-04-15T08:32:20;3.10;;;1.10;;
12784;SDS011;6456;42.680;23.260;2023-04-15T08:34:47;1.40;;;0.87;;
12784;SDS011;6456;42.680;23.260;2023-04-15T08:37:14;2.00;;;1.13;;
12784;SDS011;6456;42.680;23.260;2023-04-15T08:39:41;3.67;;;1.23;;
12784;SDS011;6456;42.680;23.260;2023-04-15T08:42:10;2.40;;;0.93;;
12784;SDS011;6456;42.680;23.260;2023-04-15T08:44:42;2.73;;;1.07;;
12784;SDS011;6456;42.680;23.260;2023-04-15T08:47:09;2.40;;;0.93;;
12784;SDS011;6456;42.680;23.260;2023-04-15T08:49:40;2.87;;;0.90;;
12784;SDS011;6456;42.680;23.260;2023-04-15T08:52:08;0.73;;;0.73;;
12784;SDS011;6456;42.680;23.260;2023-04-15T08:54:35;1.90;;;0.77;;
12784;SDS011;6456;42.680;23.260;2023-04-15T08:57:02;1.77;;;1.10;;
12784;SDS011;6456;42.680;23.260;2023-04-15T08:59:29;2.10;;;1.00;;
12784;SDS011;6456;42.680;23.260;2023-04-15T09:01:56;2.03;;;1.00;;
12784;SDS011;6456;42.680;23.260;2023-04-15T09:04:24;2.10;;;1.30;;
12784;SDS011;6456;42.680;23.260;2023-04-15T09:06:52;2.30;;;0.90;;
12784;SDS011;6456;42.680;23.260;2023-04-15T09:09:19;1.40;;;1.00;;
12784;SDS011;6456;42.680;23.260;2023-04-15T09:11:46;1.20;;;1.00;;
12784;SDS011;6456;42.680;23.260;2023-04-15T09:14:15;2.23;;;1.00;;
12784;SDS011;6456;42.680;23.260;2023-04-15T09:16:55;2.20;;;0.80;;
12784;SDS011;6456;42.680;23.260;2023-04-15T09:19:23;1.50;;;1.10;;
12784;SDS011;6456;42.680;23.260;2023-04-15T09:21:52;0.87;;;0.70;;
12784;SDS011;6456;42.680;23.260;2023-04-15T09:24:21;2.33;;;0.87;;
12784;SDS011;6456;42.680;23.260;2023-04-15T09:26:50;1.23;;;0.80;;
12784;SDS011;6456;42.680;23.260;2023-04-15T09:29:18;3.77;;;1.17;;
12784;SDS011;6456;42.680;23.260;2023-04-15T09:31:45;1.17;;;0.80;;
12784;SDS011;6456;42.680;23.260;2023-04-15T09:34:12;1.23;;;1.00;;
12784;SDS011;6456;42.680;23.260;2023-04-15T09:36:51;0.60;;;0.60;;
12784;SDS011;6456;42.680;23.260;2023-04-15T09:39:20;3.00;;;0.90;;
12784;SDS011;6456;42.680;23.260;2023-04-15T09:41:51;2.13;;;0.80;;
12784;SDS011;6456;42.680;23.260;2023-04-15T09:44:30;1.60;;;0.90;;
12784;SDS011;6456;42.680;23.260;2023-04-15T09:46:57;1.03;;;0.90;;
12784;SDS011;6456;42.680;23.260;2023-04-15T09:49:24;1.43;;;1.20;;
12784;SDS011;6456;42.680;23.260;2023-04-15T09:51:55;1.83;;;0.90;;
12784;SDS011;6456;42.680;23.260;2023-04-15T09:54:23;2.30;;;1.00;;
12784;SDS011;6456;42.680;23.260;2023-04-15T09:56:51;1.03;;;0.93;;
12784;SDS011;6456;42.680;23.260;2023-04-15T09:59:17;1.57;;;1.10;;
12784;SDS011;6456;42.680;23.260;2023-04-15T10:01:44;1.60;;;0.90;;
12784;SDS011;6456;42.680;23.260;2023-04-15T10:04:12;0.90;;;0.70;;
12784;SDS011;6456;42.680;23.260;2023-04-15T10:06:38;3.10;;;0.97;;
12784;SDS011;6456;42.680;23.260;2023-04-15T10:09:07;1.47;;;0.90;;
12784;SDS011;6456;42.680;23.260;2023-04-15T10:11:34;2.30;;;1.03;;
12784;SDS011;6456;42.680;23.260;2023-04-15T10:14:01;2.20;;;0.63;;
12784;SDS011;6456;42.680;23.260;2023-04-15T10:16:29;1.03;;;1.00;;
12784;SDS011;6456;42.680;23.260;2023-04-15T10:18:59;1.77;;;0.80;;
12784;SDS011;6456;42.680;23.260;2023-04-15T10:21:28;2.07;;;0.93;;
12784;SDS011;6456;42.680;23.260;2023-04-15T10:23:56;3.87;;;0.97;;
12784;SDS011;6456;42.680;23.260;2023-04-15T10:26:25;2.30;;;0.80;;
12784;SDS011;6456;42.680;23.260;2023-04-15T10:28:52;1.87;;;0.90;;
12784;SDS011;6456;42.680;23.260;2023-04-15T10:31:19;2.00;;;1.10;;
12784;SDS011;6456;42.680;23.260;2023-04-15T10:33:48;1.53;;;0.90;;
12784;SDS011;6456;42.680;23.260;2023-04-15T10:36:16;1.20;;;0.80;;
12784;SDS011;6456;42.680;23.260;2023-04-15T10:38:44;1.67;;;1.10;;
12784;SDS011;6456;42.680;23.260;2023-04-15T10:41:12;1.33;;;1.00;;
12784;SDS011;6456;42.680;23.260;2023-04-15T10:43:51;2.20;;;1.10;;
12784;SDS011;6456;42.680;23.260;2023-04-15T10:46:23;1.50;;;1.10;;
12784;SDS011;6456;42.680;23.260;2023-04-15T10:49:05;2.00;;;0.97;;
12784;SDS011;6456;42.680;23.260;2023-04-15T10:51:33;1.53;;;1.07;;
12784;SDS011;6456;42.680;23.260;2023-04-15T10:54:07;1.10;;;0.80;;
12784;SDS011;6456;42.680;23.260;2023-04-15T10:56:40;0.80;;;0.80;;
12784;SDS011;6456;42.680;23.260;2023-04-15T10:59:08;1.17;;;1.03;;
12784;SDS011;6456;42.680;23.260;2023-04-15T11:13:19;3.00;;;1.30;;
12784;SDS011;6456;42.680;23.260;2023-04-15T11:15:54;2.43;;;1.30;;
12784;SDS011;6456;42.680;23.260;2023-04-15T11:18:23;2.07;;;1.30;;
12784;SDS011;6456;42.680;23.260;2023-04-15T11:20:52;3.67;;;1.33;;
12784;SDS011;6456;42.680;23.260;2023-04-15T11:23:26;1.60;;;1.10;;
12784;SDS011;6456;42.680;23.260;2023-04-15T11:25:54;2.43;;;1.30;;
12784;SDS011;6456;42.680;23.260;2023-04-15T11:28:24;1.93;;;1.20;;
12784;SDS011;6456;42.680;23.260;2023-04-15T11:30:53;2.40;;;1.30;;
12784;SDS011;6456;42.680;23.260;2023-04-15T11:33:21;1.93;;;1.33;;
12784;SDS011;6456;42.680;23.260;2023-04-15T11:35:49;2.07;;;1.20;;
12784;SDS011;6456;42.680;23.260;2023-04-15T11:38:18;3.60;;;1.07;;
12784;SDS011;6456;42.680;23.260;2023-04-15T11:40:45;2.00;;;1.10;;
12784;SDS011;6456;42.680;23.260;2023-04-15T11:43:12;3.43;;;1.10;;
12784;SDS011;6456;42.680;23.260;2023-04-15T11:45:48;3.80;;;1.20;;
12784;SDS011;6456;42.680;23.260;2023-04-15T11:48:21;3.70;;;1.67;;
12784;SDS011;6456;42.680;23.260;2023-04-15T11:50:51;1.37;;;1.17;;
12784;SDS011;6456;42.680;23.260;2023-04-15T11:53:20;2.97;;;1.10;;
12784;SDS011;6456;42.680;23.260;2023-04-15T11:55:47;1.47;;;1.37;;
12784;SDS011;6456;42.680;23.260;2023-04-15T11:58:16;1.53;;;1.20;;
12784;SDS011;6456;42.680;23.260;2023-04-15T12:00:47;1.20;;;1.10;;
12784;SDS011;6456;42.680;23.260;2023-04-15T12:03:19;2.33;;;0.73;;
12784;SDS011;6456;42.680;23.260;2023-04-15T12:08:48;1.43;;;1.07;;
12784;SDS011;6456;42.680;23.260;2023-04-15T12:11:16;2.57;;;0.90;;
12784;SDS011;6456;42.680;23.260;2023-04-15T12:13:44;2.03;;;1.30;;
12784;SDS011;6456;42.680;23.260;2023-04-15T12:16:12;1.07;;;0.80;;
12784;SDS011;6456;42.680;23.260;2023-04-15T12:18:45;1.80;;;0.90;;
12784;SDS011;6456;42.680;23.260;2023-04-15T12:21:12;1.27;;;0.80;;
12784;SDS011;6456;42.680;23.260;2023-04-15T12:23:46;1.30;;;0.90;;
12784;SDS011;6456;42.680;23.260;2023-04-15T12:26:14;1.13;;;0.73;;
12784;SDS011;6456;42.680;23.260;2023-04-15T12:28:42;1.17;;;0.90;;
12784;SDS011;6456;42.680;23.260;2023-04-15T12:31:09;1.43;;;0.97;;
12784;SDS011;6456;42.680;23.260;2023-04-15T12:33:37;1.10;;;0.80;;
12784;SDS011;6456;42.680;23.260;2023-04-15T12:36:06;1.53;;;1.00;;
12784;SDS011;6456;42.680;23.260;2023-04-15T12:38:33;0.87;;;0.83;;
12784;SDS011;6456;42.680;23.260;2023-04-15T12:41:00;1.07;;;0.73;;
12784;SDS011;6456;42.680;23.260;2023-04-15T12:43:27;0.87;;;0.80;;
12784;SDS011;6456;42.680;23.260;2023-04-15T12:45:59;1.27;;;1.00;;
12784;SDS011;6456;42.680;23.260;2023-04-15T12:48:34;0.67;;;0.67;;
12784;SDS011;6456;42.680;23.260;2023-04-15T12:51:01;1.27;;;0.80;;
12784;SDS011;6456;42.680;23.260;2023-04-15T12:53:29;1.33;;;0.90;;
12784;SDS011;6456;42.680;23.260;2023-04-15T12:55:56;2.23;;;1.10;;
12784;SDS011;6456;42.680;23.260;2023-04-15T12:58:23;2.03;;;1.00;;
12784;SDS011;6456;42.680;23.260;2023-04-15T13:00:50;1.30;;;0.70;;
12784;SDS011;6456;42.680;23.260;2023-04-15T13:03:16;2.53;;;0.90;;
12784;SDS011;6456;42.680;23.260;2023-04-15T13:05:43;1.50;;;1.00;;
12784;SDS011;6456;42.680;23.260;2023-04-15T13:08:10;1.33;;;0.93;;
12784;SDS011;6456;42.680;23.260;2023-04-15T13:10:38;1.00;;;0.70;;
12784;SDS011;6456;42.680;23.260;2023-04-15T13:13:06;1.87;;;0.60;;
12784;SDS011;6456;42.680;23.260;2023-04-15T13:15:33;2.43;;;0.90;;
12784;SDS011;6456;42.680;23.260;2023-04-15T13:18:00;1.27;;;0.90;;
12784;SDS011;6456;42.680;23.260;2023-04-15T13:20:27;1.10;;;0.80;;
12784;SDS011;6456;42.680;23.260;2023-04-15T13:22:54;3.30;;;0.80;;
12784;SDS011;6456;42.680;23.260;2023-04-15T13:25:20;1.27;;;0.90;;
12784;SDS011;6456;42.680;23.260;2023-04-15T13:27:48;0.83;;;0.73;;
12784;SDS011;6456;42.680;23.260;2023-04-15T13:30:15;1.07;;;0.77;;
12784;SDS011;6456;42.680;23.260;2023-04-15T13:32:42;1.77;;;0.77;;
12784;SDS011;6456;42.680;23.260;2023-04-15T13:35:09;1.63;;;0.70;;
12784;SDS011;6456;42.680;23.260;2023-04-15T13:37:36;0.83;;;0.80;;
12784;SDS011;6456;42.680;23.260;2023-04-15T13:40:03;2.40;;;0.90;;
12784;SDS011;6456;42.680;23.260;2023-04-15T13:42:32;1.30;;;1.10;;
12784;SDS011;6456;42.680;23.260;2023-04-15T13:45:00;2.10;;;0.70;;
12784;SDS011;6456;42.680;23.260;2023-04-15T13:47:27;2.07;;;0.80;;
12784;SDS011;6456;42.680;23.260;2023-04-15T13:49:54;2.87;;;1.00;;
12784;SDS011;6456;42.680;23.260;2023-04-15T13:52:21;1.17;;;0.80;;
12784;SDS011;6456;42.680;23.260;2023-04-15T13:54:48;1.60;;;0.80;;
12784;SDS011;6456;42.680;23.260;2023-04-15T13:57:16;1.07;;;0.77;;
12784;SDS011;6456;42.680;23.260;2023-04-15T13:59:42;4.17;;;0.80;;
12784;SDS011;6456;42.680;23.260;2023-04-15T14:02:11;2.10;;;0.63;;
12784;SDS011;6456;42.680;23.260;2023-04-15T14:04:37;1.60;;;0.80;;
12784;SDS011;6456;42.680;23.260;2023-04-15T14:07:04;1.20;;;0.60;;
12784;SDS011;6456;42.680;23.260;2023-04-15T14:09:31;1.53;;;0.60;;
12784;SDS011;6456;42.680;23.260;2023-04-15T14:11:58;1.57;;;0.90;;
12784;SDS011;6456;42.680;23.260;2023-04-15T14:14:26;0.60;;;0.60;;
12784;SDS011;6456;42.680;23.260;2023-04-15T14:16:54;0.80;;;0.80;;
12784;SDS011;6456;42.680;23.260;2023-04-15T14:19:22;1.67;;;0.70;;
12784;SDS011;6456;42.680;23.260;2023-04-15T14:21:49;0.63;;;0.60;;
12784;SDS011;6456;42.680;23.260;2023-04-15T14:24:16;1.67;;;0.70;;
12784;SDS011;6456;42.680;23.260;2023-04-15T14:26:43;1.67;;;0.70;;
12784;SDS011;6456;42.680;23.260;2023-04-15T14:29:09;0.50;;;0.50;;
12784;SDS011;6456;42.680;23.260;2023-04-15T14:31:36;0.63;;;0.60;;
12784;SDS011;6456;42.680;23.260;2023-04-15T14:34:03;2.90;;;0.80;;
12784;SDS011;6456;42.680;23.260;2023-04-15T14:36:31;0.90;;;0.70;;
12784;SDS011;6456;42.680;23.260;2023-04-15T14:38:58;2.53;;;0.80;;
12784;SDS011;6456;42.680;23.260;2023-04-15T14:41:25;0.60;;;0.60;;
12784;SDS011;6456;42.680;23.260;2023-04-15T14:43:52;2.33;;;1.00;;
12784;SDS011;6456;42.680;23.260;2023-04-15T14:46:19;0.70;;;0.70;;
12784;SDS011;6456;42.680;23.260;2023-04-15T14:48:45;0.87;;;0.80;;
12784;SDS011;6456;42.680;23.260;2023-04-15T14:51:12;1.50;;;0.63;;
12784;SDS011;6456;42.680;23.260;2023-04-15T14:53:41;1.43;;;1.00;;
12784;SDS011;6456;42.680;23.260;2023-04-15T14:56:08;1.77;;;1.00;;
12784;SDS011;6456;42.680;23.260;2023-04-15T14:58:35;1.87;;;0.80;;
12784;SDS011;6456;42.680;23.260;2023-04-15T15:01:02;1.40;;;0.53;;
12784;SDS011;6456;42.680;23.260;2023-04-15T15:03:30;0.60;;;0.60;;
12784;SDS011;6456;42.680;23.260;2023-04-15T15:05:56;1.07;;;0.70;;